sensor_id;sensor_type;location;lat;lon;timestamp;P1;durP1;ratioP1;P2;durP2;ratioP2
71164;SDS011;58859;55.132;-1.586;2023-12-14T00:01:50;3.67;;;1.20;;
71164;SDS011;58859;55.132;-1.586;2023-12-14T00:04:15;3.23;;;1.40;;
71164;SDS011;58859;55.132;-1.586;2023-12-14T00:06:41;2.58;;;1.25;;
71164;SDS011;58859;55.132;-1.586;2023-12-14T00:09:06;2.65;;;1.38;;
71164;SDS011;58859;55.132;-1.586;2023-12-14T00:11:35;2.80;;;1.93;;
71164;SDS011;58859;55.132;-1.586;2023-12-14T00:14:03;1.77;;;1.30;;
71164;SDS011;58859;55.132;-1.586;2023-12-14T00:16:28;2.07;;;1.40;;
71164;SDS011;58859;55.132;-1.586;2023-12-14T00:18:53;2.40;;;1.48;;
71164;SDS011;58859;55.132;-1.586;2023-12-14T00:21:19;2.83;;;1.50;;
71164;SDS011;58859;55.132;-1.586;2023-12-14T00:23:44;2.20;;;1.70;;
71164;SDS011;58859;55.132;-1.586;2023-12-14T00:26:09;2.27;;;1.50;;
71164;SDS011;58859;55.132;-1.586;2023-12-14T00:28:35;3.30;;;1.85;;
71164;SDS011;58859;55.132;-1.586;2023-12-14T00:31:00;3.08;;;1.70;;
71164;SDS011;58859;55.132;-1.586;2023-12-14T00:33:26;3.70;;;1.67;;
71164;SDS011;58859;55.132;-1.586;2023-12-14T00:35:51;4.77;;;1.67;;
71164;SDS011;58859;55.132;-1.586;2023-12-14T00:38:16;4.47;;;1.47;;
71164;SDS011;58859;55.132;-1.586;2023-12-14T00:40:42;3.03;;;1.50;;
71164;SDS011;58859;55.132;-1.586;2023-12-14T00:43:07;8.23;;;1.88;;
71164;SDS011;58859;55.132;-1.586;2023-12-14T00:45:33;2.77;;;1.60;;
71164;SDS011;58859;55.132;-1.586;2023-12-14T00:47:58;5.87;;;1.60;;
71164;SDS011;58859;55.132;-1.586;2023-12-14T00:50:23;1.97;;;1.50;;
71164;SDS011;58859;55.132;-1.586;2023-12-14T00:52:49;5.97;;;1.83;;
71164;SDS011;58859;55.132;-1.586;2023-12-14T00:55:14;4.03;;;1.40;;
71164;SDS011;58859;55.132;-1.586;2023-12-14T00:57:40;2.92;;;2.25;;
71164;SDS011;58859;55.132;-1.586;2023-12-14T01:00:05;2.60;;;1.63;;
71164;SDS011;58859;55.132;-1.586;2023-12-14T01:02:31;3.47;;;1.55;;
71164;SDS011;58859;55.132;-1.586;2023-12-14T01:04:57;3.23;;;1.73;;
71164;SDS011;58859;55.132;-1.586;2023-12-14T01:07:23;3.35;;;1.95;;
71164;SDS011;58859;55.132;-1.586;2023-12-14T01:09:48;3.28;;;1.73;;
71164;SDS011;58859;55.132;-1.586;2023-12-14T01:12:13;4.93;;;2.33;;
71164;SDS011;58859;55.132;-1.586;2023-12-14T01:14:39;5.03;;;1.80;;
71164;SDS011;58859;55.132;-1.586;2023-12-14T01:17:04;2.63;;;1.60;;
71164;SDS011;58859;55.132;-1.586;2023-12-14T01:19:30;6.23;;;1.87;;
71164;SDS011;58859;55.132;-1.586;2023-12-14T01:21:55;4.38;;;1.80;;
71164;SDS011;58859;55.132;-1.586;2023-12-14T01:24:20;4.27;;;2.10;;
71164;SDS011;58859;55.132;-1.586;2023-12-14T01:26:46;3.97;;;1.60;;
71164;SDS011;58859;55.132;-1.586;2023-12-14T01:29:11;4.07;;;1.63;;
71164;SDS011;58859;55.132;-1.586;2023-12-14T01:31:37;2.78;;;2.10;;
71164;SDS011;58859;55.132;-1.586;2023-12-14T01:34:02;1.77;;;1.67;;
71164;SDS011;58859;55.132;-1.586;2023-12-14T01:36:27;3.67;;;1.70;;
71164;SDS011;58859;55.132;-1.586;2023-12-14T01:38:53;3.80;;;1.90;;
71164;SDS011;58859;55.132;-1.586;2023-12-14T01:41:18;4.30;;;1.53;;
71164;SDS011;58859;55.132;-1.586;2023-12-14T01:43:44;5.20;;;1.80;;
71164;SDS011;58859;55.132;-1.586;2023-12-14T01:46:10;5.28;;;1.70;;
71164;SDS011;58859;55.132;-1.586;2023-12-14T01:48:35;5.05;;;2.00;;
71164;SDS011;58859;55.132;-1.586;2023-12-14T01:51:01;4.67;;;1.97;;
71164;SDS011;58859;55.132;-1.586;2023-12-14T01:53:27;1.58;;;1.48;;
71164;SDS011;58859;55.132;-1.586;2023-12-14T01:55:52;5.07;;;1.90;;
71164;SDS011;58859;55.132;-1.586;2023-12-14T01:58:18;4.37;;;1.87;;
71164;SDS011;58859;55.132;-1.586;2023-12-14T02:00:46;4.47;;;2.35;;
71164;SDS011;58859;55.132;-1.586;2023-12-14T02:03:20;6.60;;;2.00;;
71164;SDS011;58859;55.132;-1.586;2023-12-14T02:05:46;5.38;;;2.47;;
71164;SDS011;58859;55.132;-1.586;2023-12-14T02:08:11;2.30;;;1.60;;
71164;SDS011;58859;55.132;-1.586;2023-12-14T02:10:36;2.13;;;1.77;;
71164;SDS011;58859;55.132;-1.586;2023-12-14T02:13:02;5.00;;;2.00;;
71164;SDS011;58859;55.132;-1.586;2023-12-14T02:15:28;4.88;;;2.28;;
71164;SDS011;58859;55.132;-1.586;2023-12-14T02:17:53;4.53;;;1.93;;
71164;SDS011;58859;55.132;-1.586;2023-12-14T02:20:19;5.50;;;2.30;;
71164;SDS011;58859;55.132;-1.586;2023-12-14T02:22:48;3.20;;;1.73;;
71164;SDS011;58859;55.132;-1.586;2023-12-14T02:25:15;3.20;;;1.73;;
71164;SDS011;58859;55.132;-1.586;2023-12-14T02:27:40;3.22;;;1.77;;
71164;SDS011;58859;55.132;-1.586;2023-12-14T02:30:06;5.27;;;2.07;;
71164;SDS011;58859;55.132;-1.586;2023-12-14T02:32:32;2.90;;;2.20;;
71164;SDS011;58859;55.132;-1.586;2023-12-14T02:34:57;2.70;;;1.90;;
71164;SDS011;58859;55.132;-1.586;2023-12-14T02:37:23;4.17;;;1.97;;
71164;SDS011;58859;55.132;-1.586;2023-12-14T02:39:48;3.83;;;2.17;;
71164;SDS011;58859;55.132;-1.586;2023-12-14T02:42:13;3.83;;;2.20;;
71164;SDS011;58859;55.132;-1.586;2023-12-14T02:44:39;3.88;;;1.73;;
71164;SDS011;58859;55.132;-1.586;2023-12-14T02:47:04;3.17;;;2.33;;
71164;SDS011;58859;55.132;-1.586;2023-12-14T02:49:30;4.60;;;2.87;;
71164;SDS011;58859;55.132;-1.586;2023-12-14T02:51:55;5.77;;;1.97;;
71164;SDS011;58859;55.132;-1.586;2023-12-14T02:54:20;3.73;;;1.93;;
71164;SDS011;58859;55.132;-1.586;2023-12-14T02:56:46;3.67;;;2.08;;
71164;SDS011;58859;55.132;-1.586;2023-12-14T02:59:11;3.87;;;2.10;;
71164;SDS011;58859;55.132;-1.586;2023-12-14T03:01:37;6.67;;;2.33;;
71164;SDS011;58859;55.132;-1.586;2023-12-14T03:04:02;7.00;;;2.13;;
71164;SDS011;58859;55.132;-1.586;2023-12-14T03:06:27;2.17;;;1.77;;
71164;SDS011;58859;55.132;-1.586;2023-12-14T03:08:53;4.55;;;1.83;;
71164;SDS011;58859;55.132;-1.586;2023-12-14T03:11:22;3.73;;;2.03;;
71164;SDS011;58859;55.132;-1.586;2023-12-14T03:13:48;2.87;;;2.23;;
71164;SDS011;58859;55.132;-1.586;2023-12-14T03:16:14;5.07;;;2.03;;
71164;SDS011;58859;55.132;-1.586;2023-12-14T03:18:39;3.40;;;2.07;;
71164;SDS011;58859;55.132;-1.586;2023-12-14T03:21:05;4.40;;;1.97;;
71164;SDS011;58859;55.132;-1.586;2023-12-14T03:23:30;2.47;;;1.55;;
71164;SDS011;58859;55.132;-1.586;2023-12-14T03:25:55;11.47;;;1.87;;
71164;SDS011;58859;55.132;-1.586;2023-12-14T03:28:21;3.57;;;1.73;;
71164;SDS011;58859;55.132;-1.586;2023-12-14T03:30:47;4.18;;;1.92;;
71164;SDS011;58859;55.132;-1.586;2023-12-14T03:33:13;2.97;;;1.93;;
71164;SDS011;58859;55.132;-1.586;2023-12-14T03:35:38;2.40;;;1.73;;
71164;SDS011;58859;55.132;-1.586;2023-12-14T03:38:07;4.07;;;1.43;;
71164;SDS011;58859;55.132;-1.586;2023-12-14T03:40:32;2.75;;;1.60;;
71164;SDS011;58859;55.132;-1.586;2023-12-14T03:42:58;1.83;;;1.73;;
71164;SDS011;58859;55.132;-1.586;2023-12-14T03:45:23;2.08;;;1.85;;
71164;SDS011;58859;55.132;-1.586;2023-12-14T03:47:49;2.57;;;1.90;;
71164;SDS011;58859;55.132;-1.586;2023-12-14T03:50:14;5.60;;;2.33;;
71164;SDS011;58859;55.132;-1.586;2023-12-14T03:52:40;3.50;;;2.55;;
71164;SDS011;58859;55.132;-1.586;2023-12-14T03:55:05;4.38;;;1.70;;
71164;SDS011;58859;55.132;-1.586;2023-12-14T03:57:31;3.15;;;2.00;;
71164;SDS011;58859;55.132;-1.586;2023-12-14T03:59:57;2.13;;;1.70;;
71164;SDS011;58859;55.132;-1.586;2023-12-14T04:02:22;4.77;;;2.13;;
71164;SDS011;58859;55.132;-1.586;2023-12-14T04:04:48;3.47;;;1.60;;
71164;SDS011;58859;55.132;-1.586;2023-12-14T04:07:13;2.97;;;1.42;;
71164;SDS011;58859;55.132;-1.586;2023-12-14T04:09:39;2.77;;;1.80;;
71164;SDS011;58859;55.132;-1.586;2023-12-14T04:12:04;4.13;;;1.93;;
71164;SDS011;58859;55.132;-1.586;2023-12-14T04:14:30;1.88;;;1.50;;
71164;SDS011;58859;55.132;-1.586;2023-12-14T04:16:56;4.27;;;1.67;;
71164;SDS011;58859;55.132;-1.586;2023-12-14T04:19:21;3.83;;;1.80;;
71164;SDS011;58859;55.132;-1.586;2023-12-14T04:21:47;2.42;;;1.13;;
71164;SDS011;58859;55.132;-1.586;2023-12-14T04:24:12;3.07;;;1.30;;
71164;SDS011;58859;55.132;-1.586;2023-12-14T04:26:38;1.75;;;1.02;;
71164;SDS011;58859;55.132;-1.586;2023-12-14T04:29:05;3.63;;;1.40;;
71164;SDS011;58859;55.132;-1.586;2023-12-14T04:31:32;3.47;;;1.35;;
71164;SDS011;58859;55.132;-1.586;2023-12-14T04:33:58;5.75;;;1.60;;
71164;SDS011;58859;55.132;-1.586;2023-12-14T04:36:23;3.17;;;1.70;;
71164;SDS011;58859;55.132;-1.586;2023-12-14T04:38:49;3.73;;;1.63;;
71164;SDS011;58859;55.132;-1.586;2023-12-14T04:41:14;5.38;;;1.90;;
71164;SDS011;58859;55.132;-1.586;2023-12-14T04:43:39;3.78;;;1.90;;
71164;SDS011;58859;55.132;-1.586;2023-12-14T04:46:05;4.50;;;1.80;;
71164;SDS011;58859;55.132;-1.586;2023-12-14T04:48:31;2.85;;;1.50;;
71164;SDS011;58859;55.132;-1.586;2023-12-14T04:50:57;2.33;;;1.80;;
71164;SDS011;58859;55.132;-1.586;2023-12-14T04:53:22;1.98;;;1.38;;
71164;SDS011;58859;55.132;-1.586;2023-12-14T04:55:48;4.35;;;1.30;;
71164;SDS011;58859;55.132;-1.586;2023-12-14T04:58:13;1.93;;;1.67;;
71164;SDS011;58859;55.132;-1.586;2023-12-14T05:00:38;3.07;;;1.10;;
71164;SDS011;58859;55.132;-1.586;2023-12-14T05:03:04;4.37;;;1.63;;
71164;SDS011;58859;55.132;-1.586;2023-12-14T05:05:29;1.50;;;1.33;;
71164;SDS011;58859;55.132;-1.586;2023-12-14T05:07:55;3.20;;;1.75;;
71164;SDS011;58859;55.132;-1.586;2023-12-14T05:10:20;1.73;;;1.37;;
71164;SDS011;58859;55.132;-1.586;2023-12-14T05:12:46;3.43;;;1.40;;
71164;SDS011;58859;55.132;-1.586;2023-12-14T05:15:11;3.90;;;1.60;;
71164;SDS011;58859;55.132;-1.586;2023-12-14T05:17:37;0.98;;;0.98;;
71164;SDS011;58859;55.132;-1.586;2023-12-14T05:20:03;1.93;;;1.47;;
71164;SDS011;58859;55.132;-1.586;2023-12-14T05:22:30;1.40;;;1.02;;
71164;SDS011;58859;55.132;-1.586;2023-12-14T05:24:55;2.23;;;1.13;;
71164;SDS011;58859;55.132;-1.586;2023-12-14T05:27:21;5.50;;;1.27;;
71164;SDS011;58859;55.132;-1.586;2023-12-14T05:29:46;1.97;;;1.53;;
71164;SDS011;58859;55.132;-1.586;2023-12-14T05:32:12;1.80;;;1.17;;
71164;SDS011;58859;55.132;-1.586;2023-12-14T05:34:37;2.17;;;1.00;;
71164;SDS011;58859;55.132;-1.586;2023-12-14T05:37:03;4.03;;;1.03;;
71164;SDS011;58859;55.132;-1.586;2023-12-14T05:39:28;3.37;;;1.40;;
71164;SDS011;58859;55.132;-1.586;2023-12-14T05:41:54;1.25;;;1.00;;
71164;SDS011;58859;55.132;-1.586;2023-12-14T05:44:19;3.20;;;1.50;;
71164;SDS011;58859;55.132;-1.586;2023-12-14T05:46:44;3.33;;;1.00;;
71164;SDS011;58859;55.132;-1.586;2023-12-14T05:49:10;2.15;;;1.20;;
71164;SDS011;58859;55.132;-1.586;2023-12-14T05:51:36;0.95;;;0.88;;
71164;SDS011;58859;55.132;-1.586;2023-12-14T05:54:02;2.60;;;1.00;;
71164;SDS011;58859;55.132;-1.586;2023-12-14T05:56:28;2.30;;;1.10;;
71164;SDS011;58859;55.132;-1.586;2023-12-14T05:58:54;5.43;;;1.50;;
71164;SDS011;58859;55.132;-1.586;2023-12-14T06:01:20;2.58;;;1.38;;
71164;SDS011;58859;55.132;-1.586;2023-12-14T06:03:46;2.50;;;0.87;;
71164;SDS011;58859;55.132;-1.586;2023-12-14T06:06:11;1.27;;;0.90;;
71164;SDS011;58859;55.132;-1.586;2023-12-14T06:08:38;5.00;;;1.40;;
71164;SDS011;58859;55.132;-1.586;2023-12-14T06:11:04;2.72;;;1.08;;
71164;SDS011;58859;55.132;-1.586;2023-12-14T06:13:31;2.10;;;1.30;;
71164;SDS011;58859;55.132;-1.586;2023-12-14T06:15:57;1.60;;;1.00;;
71164;SDS011;58859;55.132;-1.586;2023-12-14T06:18:22;4.47;;;1.10;;
71164;SDS011;58859;55.132;-1.586;2023-12-14T06:20:47;4.80;;;1.13;;
71164;SDS011;58859;55.132;-1.586;2023-12-14T06:23:14;4.63;;;1.33;;
71164;SDS011;58859;55.132;-1.586;2023-12-14T06:25:39;2.10;;;1.08;;
71164;SDS011;58859;55.132;-1.586;2023-12-14T06:28:05;4.33;;;1.53;;
71164;SDS011;58859;55.132;-1.586;2023-12-14T06:30:30;2.93;;;1.60;;
71164;SDS011;58859;55.132;-1.586;2023-12-14T06:32:55;3.33;;;0.98;;
71164;SDS011;58859;55.132;-1.586;2023-12-14T06:35:21;1.00;;;0.90;;
71164;SDS011;58859;55.132;-1.586;2023-12-14T06:37:47;2.00;;;1.50;;
71164;SDS011;58859;55.132;-1.586;2023-12-14T06:40:12;2.25;;;1.50;;
71164;SDS011;58859;55.132;-1.586;2023-12-14T06:42:39;1.42;;;1.33;;
71164;SDS011;58859;55.132;-1.586;2023-12-14T06:45:04;2.23;;;1.30;;
71164;SDS011;58859;55.132;-1.586;2023-12-14T06:47:30;4.68;;;1.40;;
71164;SDS011;58859;55.132;-1.586;2023-12-14T06:49:56;2.53;;;1.27;;
71164;SDS011;58859;55.132;-1.586;2023-12-14T06:52:24;3.30;;;1.48;;
71164;SDS011;58859;55.132;-1.586;2023-12-14T06:54:49;2.10;;;1.60;;
71164;SDS011;58859;55.132;-1.586;2023-12-14T06:57:15;2.50;;;1.53;;
71164;SDS011;58859;55.132;-1.586;2023-12-14T06:59:40;2.30;;;1.50;;
71164;SDS011;58859;55.132;-1.586;2023-12-14T07:02:06;4.43;;;1.60;;
71164;SDS011;58859;55.132;-1.586;2023-12-14T07:04:32;3.00;;;1.73;;
71164;SDS011;58859;55.132;-1.586;2023-12-14T07:06:57;4.43;;;1.70;;
71164;SDS011;58859;55.132;-1.586;2023-12-14T07:09:23;5.13;;;1.47;;
71164;SDS011;58859;55.132;-1.586;2023-12-14T07:11:49;1.83;;;1.63;;
71164;SDS011;58859;55.132;-1.586;2023-12-14T07:14:15;2.90;;;1.37;;
71164;SDS011;58859;55.132;-1.586;2023-12-14T07:16:40;2.10;;;1.20;;
71164;SDS011;58859;55.132;-1.586;2023-12-14T07:19:06;7.68;;;1.38;;
71164;SDS011;58859;55.132;-1.586;2023-12-14T07:21:32;2.37;;;1.20;;
71164;SDS011;58859;55.132;-1.586;2023-12-14T07:23:57;4.22;;;1.30;;
71164;SDS011;58859;55.132;-1.586;2023-12-14T07:26:24;1.85;;;1.10;;
71164;SDS011;58859;55.132;-1.586;2023-12-14T07:28:49;2.00;;;1.00;;
71164;SDS011;58859;55.132;-1.586;2023-12-14T07:31:16;3.70;;;1.17;;
71164;SDS011;58859;55.132;-1.586;2023-12-14T07:33:42;1.57;;;0.93;;
71164;SDS011;58859;55.132;-1.586;2023-12-14T07:36:08;2.83;;;1.27;;
71164;SDS011;58859;55.132;-1.586;2023-12-14T07:38:33;3.57;;;1.10;;
71164;SDS011;58859;55.132;-1.586;2023-12-14T07:40:59;2.00;;;1.07;;
71164;SDS011;58859;55.132;-1.586;2023-12-14T07:43:24;3.13;;;1.10;;
71164;SDS011;58859;55.132;-1.586;2023-12-14T07:45:50;0.90;;;0.90;;
71164;SDS011;58859;55.132;-1.586;2023-12-14T07:48:15;2.60;;;1.03;;
71164;SDS011;58859;55.132;-1.586;2023-12-14T07:50:40;3.30;;;1.20;;
71164;SDS011;58859;55.132;-1.586;2023-12-14T07:53:06;1.10;;;1.10;;
71164;SDS011;58859;55.132;-1.586;2023-12-14T07:55:31;1.63;;;1.10;;
71164;SDS011;58859;55.132;-1.586;2023-12-14T07:57:57;1.77;;;0.87;;
71164;SDS011;58859;55.132;-1.586;2023-12-14T08:00:22;1.53;;;1.00;;
71164;SDS011;58859;55.132;-1.586;2023-12-14T08:02:48;2.00;;;1.40;;
71164;SDS011;58859;55.132;-1.586;2023-12-14T08:05:13;1.40;;;1.10;;
71164;SDS011;58859;55.132;-1.586;2023-12-14T08:07:39;1.60;;;0.80;;
71164;SDS011;58859;55.132;-1.586;2023-12-14T08:10:04;1.20;;;1.20;;
71164;SDS011;58859;55.132;-1.586;2023-12-14T08:12:30;0.82;;;0.75;;
71164;SDS011;58859;55.132;-1.586;2023-12-14T08:14:55;1.13;;;0.80;;
71164;SDS011;58859;55.132;-1.586;2023-12-14T08:17:21;1.37;;;1.33;;
71164;SDS011;58859;55.132;-1.586;2023-12-14T08:19:46;1.90;;;0.80;;
71164;SDS011;58859;55.132;-1.586;2023-12-14T08:22:12;2.33;;;1.03;;
71164;SDS011;58859;55.132;-1.586;2023-12-14T08:24:40;1.13;;;0.90;;
71164;SDS011;58859;55.132;-1.586;2023-12-14T08:27:08;1.00;;;1.00;;
71164;SDS011;58859;55.132;-1.586;2023-12-14T08:29:34;0.95;;;0.90;;
71164;SDS011;58859;55.132;-1.586;2023-12-14T08:31:59;0.90;;;0.90;;
71164;SDS011;58859;55.132;-1.586;2023-12-14T08:34:25;1.10;;;1.00;;
71164;SDS011;58859;55.132;-1.586;2023-12-14T08:36:52;1.65;;;0.90;;
71164;SDS011;58859;55.132;-1.586;2023-12-14T08:39:17;0.88;;;0.88;;
71164;SDS011;58859;55.132;-1.586;2023-12-14T08:41:43;0.60;;;0.60;;
71164;SDS011;58859;55.132;-1.586;2023-12-14T08:44:10;1.70;;;0.80;;
71164;SDS011;58859;55.132;-1.586;2023-12-14T08:46:43;0.90;;;0.90;;
71164;SDS011;58859;55.132;-1.586;2023-12-14T08:49:10;0.70;;;0.70;;
71164;SDS011;58859;55.132;-1.586;2023-12-14T08:51:36;0.80;;;0.80;;
71164;SDS011;58859;55.132;-1.586;2023-12-14T08:54:03;1.00;;;1.00;;
71164;SDS011;58859;55.132;-1.586;2023-12-14T08:56:29;0.95;;;0.95;;
71164;SDS011;58859;55.132;-1.586;2023-12-14T08:58:55;0.90;;;0.90;;
71164;SDS011;58859;55.132;-1.586;2023-12-14T09:01:20;0.80;;;0.80;;
71164;SDS011;58859;55.132;-1.586;2023-12-14T09:03:47;0.73;;;0.73;;
71164;SDS011;58859;55.132;-1.586;2023-12-14T09:06:12;0.90;;;0.90;;
71164;SDS011;58859;55.132;-1.586;2023-12-14T09:08:39;0.90;;;0.90;;
71164;SDS011;58859;55.132;-1.586;2023-12-14T09:11:06;1.05;;;1.02;;
71164;SDS011;58859;55.132;-1.586;2023-12-14T09:13:31;0.80;;;0.80;;
71164;SDS011;58859;55.132;-1.586;2023-12-14T09:15:57;1.42;;;0.95;;
71164;SDS011;58859;55.132;-1.586;2023-12-14T09:18:22;0.90;;;0.90;;
71164;SDS011;58859;55.132;-1.586;2023-12-14T09:20:48;1.25;;;1.02;;
71164;SDS011;58859;55.132;-1.586;2023-12-14T09:23:17;1.20;;;0.90;;
71164;SDS011;58859;55.132;-1.586;2023-12-14T09:25:44;0.75;;;0.75;;
71164;SDS011;58859;55.132;-1.586;2023-12-14T09:28:10;0.90;;;0.88;;
71164;SDS011;58859;55.132;-1.586;2023-12-14T09:30:35;0.65;;;0.65;;
71164;SDS011;58859;55.132;-1.586;2023-12-14T09:33:01;1.10;;;1.10;;
71164;SDS011;58859;55.132;-1.586;2023-12-14T09:35:26;3.30;;;1.03;;
71164;SDS011;58859;55.132;-1.586;2023-12-14T09:37:52;1.43;;;1.23;;
71164;SDS011;58859;55.132;-1.586;2023-12-14T09:40:18;0.95;;;0.95;;
71164;SDS011;58859;55.132;-1.586;2023-12-14T09:42:44;1.00;;;0.95;;
71164;SDS011;58859;55.132;-1.586;2023-12-14T09:45:10;1.23;;;1.10;;
71164;SDS011;58859;55.132;-1.586;2023-12-14T09:47:37;2.45;;;1.13;;
71164;SDS011;58859;55.132;-1.586;2023-12-14T09:50:03;1.30;;;1.00;;
71164;SDS011;58859;55.132;-1.586;2023-12-14T09:52:30;1.40;;;1.20;;
71164;SDS011;58859;55.132;-1.586;2023-12-14T09:54:56;1.40;;;1.33;;
71164;SDS011;58859;55.132;-1.586;2023-12-14T09:57:21;1.50;;;1.40;;
71164;SDS011;58859;55.132;-1.586;2023-12-14T09:59:54;1.65;;;0.93;;
71164;SDS011;58859;55.132;-1.586;2023-12-14T10:02:20;3.00;;;1.27;;
71164;SDS011;58859;55.132;-1.586;2023-12-14T10:04:52;1.38;;;1.27;;
71164;SDS011;58859;55.132;-1.586;2023-12-14T10:07:19;1.67;;;1.58;;
71164;SDS011;58859;55.132;-1.586;2023-12-14T10:09:46;1.10;;;1.00;;
71164;SDS011;58859;55.132;-1.586;2023-12-14T10:12:12;1.60;;;1.20;;
71164;SDS011;58859;55.132;-1.586;2023-12-14T10:14:37;1.47;;;1.37;;
71164;SDS011;58859;55.132;-1.586;2023-12-14T10:17:21;1.60;;;1.50;;
71164;SDS011;58859;55.132;-1.586;2023-12-14T10:19:49;1.80;;;1.27;;
71164;SDS011;58859;55.132;-1.586;2023-12-14T10:22:15;4.60;;;1.50;;
71164;SDS011;58859;55.132;-1.586;2023-12-14T10:24:49;1.38;;;1.38;;
71164;SDS011;58859;55.132;-1.586;2023-12-14T10:27:15;1.20;;;1.20;;
71164;SDS011;58859;55.132;-1.586;2023-12-14T10:29:41;1.60;;;1.48;;
71164;SDS011;58859;55.132;-1.586;2023-12-14T10:32:07;1.33;;;1.23;;
71164;SDS011;58859;55.132;-1.586;2023-12-14T10:34:36;2.28;;;1.45;;
71164;SDS011;58859;55.132;-1.586;2023-12-14T10:37:02;2.43;;;1.43;;
71164;SDS011;58859;55.132;-1.586;2023-12-14T10:39:30;1.30;;;1.23;;
71164;SDS011;58859;55.132;-1.586;2023-12-14T10:41:58;1.37;;;1.27;;
71164;SDS011;58859;55.132;-1.586;2023-12-14T10:44:26;1.08;;;1.08;;
71164;SDS011;58859;55.132;-1.586;2023-12-14T10:46:57;3.15;;;1.60;;
71164;SDS011;58859;55.132;-1.586;2023-12-14T10:49:23;1.50;;;1.40;;
71164;SDS011;58859;55.132;-1.586;2023-12-14T10:51:51;1.93;;;1.40;;
71164;SDS011;58859;55.132;-1.586;2023-12-14T10:54:25;1.50;;;1.40;;
71164;SDS011;58859;55.132;-1.586;2023-12-14T10:56:55;2.88;;;1.65;;
71164;SDS011;58859;55.132;-1.586;2023-12-14T10:59:21;1.38;;;1.30;;
71164;SDS011;58859;55.132;-1.586;2023-12-14T11:01:52;1.60;;;1.50;;
71164;SDS011;58859;55.132;-1.586;2023-12-14T11:04:18;1.77;;;1.60;;
71164;SDS011;58859;55.132;-1.586;2023-12-14T11:06:46;2.03;;;1.30;;
71164;SDS011;58859;55.132;-1.586;2023-12-14T11:09:13;1.95;;;1.25;;
71164;SDS011;58859;55.132;-1.586;2023-12-14T11:14:18;2.78;;;1.52;;
71164;SDS011;58859;55.132;-1.586;2023-12-14T11:16:44;2.13;;;1.50;;
71164;SDS011;58859;55.132;-1.586;2023-12-14T11:22:33;3.20;;;1.15;;
71164;SDS011;58859;55.132;-1.586;2023-12-14T11:24:32;2.90;;;1.27;;
71164;SDS011;58859;55.132;-1.586;2023-12-14T11:27:02;1.00;;;1.00;;
71164;SDS011;58859;55.132;-1.586;2023-12-14T11:29:29;2.43;;;1.20;;
71164;SDS011;58859;55.132;-1.586;2023-12-14T11:31:55;1.45;;;1.08;;
71164;SDS011;58859;55.132;-1.586;2023-12-14T11:34:23;1.13;;;1.00;;
71164;SDS011;58859;55.132;-1.586;2023-12-14T11:36:50;2.33;;;0.90;;
71164;SDS011;58859;55.132;-1.586;2023-12-14T11:39:15;1.97;;;1.30;;
71164;SDS011;58859;55.132;-1.586;2023-12-14T11:41:41;2.88;;;1.10;;
71164;SDS011;58859;55.132;-1.586;2023-12-14T11:44:06;2.73;;;1.07;;
71164;SDS011;58859;55.132;-1.586;2023-12-14T11:46:32;1.23;;;1.10;;
71164;SDS011;58859;55.132;-1.586;2023-12-14T11:48:58;1.83;;;0.90;;
71164;SDS011;58859;55.132;-1.586;2023-12-14T11:51:24;2.03;;;1.42;;
71164;SDS011;58859;55.132;-1.586;2023-12-14T11:53:55;3.60;;;0.98;;
71164;SDS011;58859;55.132;-1.586;2023-12-14T11:56:20;4.43;;;1.20;;
71164;SDS011;58859;55.132;-1.586;2023-12-14T11:58:48;1.52;;;1.10;;
71164;SDS011;58859;55.132;-1.586;2023-12-14T12:01:17;2.38;;;1.10;;
71164;SDS011;58859;55.132;-1.586;2023-12-14T12:03:44;1.40;;;1.13;;
71164;SDS011;58859;55.132;-1.586;2023-12-14T12:06:23;1.23;;;1.17;;
71164;SDS011;58859;55.132;-1.586;2023-12-14T12:08:50;1.52;;;1.20;;
71164;SDS011;58859;55.132;-1.586;2023-12-14T12:11:20;4.18;;;1.17;;
71164;SDS011;58859;55.132;-1.586;2023-12-14T12:13:56;3.25;;;1.52;;
71164;SDS011;58859;55.132;-1.586;2023-12-14T12:16:23;1.92;;;1.05;;
71164;SDS011;58859;55.132;-1.586;2023-12-14T12:18:49;3.00;;;1.40;;
71164;SDS011;58859;55.132;-1.586;2023-12-14T12:21:15;3.30;;;1.00;;
71164;SDS011;58859;55.132;-1.586;2023-12-14T12:23:41;3.40;;;1.50;;
71164;SDS011;58859;55.132;-1.586;2023-12-14T12:26:07;7.63;;;1.50;;
71164;SDS011;58859;55.132;-1.586;2023-12-14T12:28:33;3.47;;;1.67;;
71164;SDS011;58859;55.132;-1.586;2023-12-14T12:30:58;4.10;;;1.20;;
71164;SDS011;58859;55.132;-1.586;2023-12-14T12:33:24;5.25;;;1.13;;
71164;SDS011;58859;55.132;-1.586;2023-12-14T12:35:51;5.97;;;1.57;;
71164;SDS011;58859;55.132;-1.586;2023-12-14T12:38:16;6.38;;;1.20;;
71164;SDS011;58859;55.132;-1.586;2023-12-14T12:40:44;4.57;;;1.50;;
71164;SDS011;58859;55.132;-1.586;2023-12-14T12:43:09;2.83;;;1.23;;
71164;SDS011;58859;55.132;-1.586;2023-12-14T12:45:36;2.97;;;1.00;;
71164;SDS011;58859;55.132;-1.586;2023-12-14T12:48:02;3.88;;;1.23;;
71164;SDS011;58859;55.132;-1.586;2023-12-14T12:50:29;6.03;;;1.70;;
71164;SDS011;58859;55.132;-1.586;2023-12-14T12:52:55;4.03;;;1.27;;
71164;SDS011;58859;55.132;-1.586;2023-12-14T12:55:20;2.92;;;0.80;;
71164;SDS011;58859;55.132;-1.586;2023-12-14T12:57:46;2.37;;;1.20;;
71164;SDS011;58859;55.132;-1.586;2023-12-14T13:00:12;4.28;;;1.52;;
71164;SDS011;58859;55.132;-1.586;2023-12-14T13:02:39;5.18;;;1.73;;
71164;SDS011;58859;55.132;-1.586;2023-12-14T13:05:05;4.68;;;1.52;;
71164;SDS011;58859;55.132;-1.586;2023-12-14T13:07:33;4.33;;;1.20;;
71164;SDS011;58859;55.132;-1.586;2023-12-14T13:09:59;12.00;;;2.15;;
71164;SDS011;58859;55.132;-1.586;2023-12-14T13:12:24;5.37;;;0.93;;
71164;SDS011;58859;55.132;-1.586;2023-12-14T13:14:51;5.85;;;1.63;;
71164;SDS011;58859;55.132;-1.586;2023-12-14T13:17:16;6.18;;;1.73;;
71164;SDS011;58859;55.132;-1.586;2023-12-14T13:19:43;6.05;;;1.98;;
71164;SDS011;58859;55.132;-1.586;2023-12-14T13:22:09;7.80;;;2.00;;
71164;SDS011;58859;55.132;-1.586;2023-12-14T13:24:36;5.32;;;1.30;;
71164;SDS011;58859;55.132;-1.586;2023-12-14T13:27:02;4.45;;;1.52;;
71164;SDS011;58859;55.132;-1.586;2023-12-14T13:29:28;5.70;;;1.73;;
71164;SDS011;58859;55.132;-1.586;2023-12-14T13:31:56;5.25;;;1.13;;
71164;SDS011;58859;55.132;-1.586;2023-12-14T13:34:21;8.43;;;1.80;;
71164;SDS011;58859;55.132;-1.586;2023-12-14T13:36:47;9.77;;;2.33;;
71164;SDS011;58859;55.132;-1.586;2023-12-14T13:39:12;6.80;;;1.93;;
71164;SDS011;58859;55.132;-1.586;2023-12-14T13:41:38;8.00;;;2.25;;
71164;SDS011;58859;55.132;-1.586;2023-12-14T13:44:03;6.55;;;1.67;;
71164;SDS011;58859;55.132;-1.586;2023-12-14T13:46:29;7.70;;;2.27;;
71164;SDS011;58859;55.132;-1.586;2023-12-14T13:48:54;7.57;;;1.90;;
71164;SDS011;58859;55.132;-1.586;2023-12-14T13:51:20;5.43;;;1.40;;
71164;SDS011;58859;55.132;-1.586;2023-12-14T13:53:45;13.00;;;1.95;;
71164;SDS011;58859;55.132;-1.586;2023-12-14T13:56:10;5.93;;;2.03;;
71164;SDS011;58859;55.132;-1.586;2023-12-14T13:58:36;5.47;;;1.70;;
71164;SDS011;58859;55.132;-1.586;2023-12-14T14:01:03;7.35;;;1.58;;
71164;SDS011;58859;55.132;-1.586;2023-12-14T14:03:32;9.80;;;1.63;;
71164;SDS011;58859;55.132;-1.586;2023-12-14T14:05:58;9.43;;;1.92;;
71164;SDS011;58859;55.132;-1.586;2023-12-14T14:08:24;7.80;;;2.40;;
71164;SDS011;58859;55.132;-1.586;2023-12-14T14:10:49;11.93;;;1.77;;
71164;SDS011;58859;55.132;-1.586;2023-12-14T14:13:15;11.80;;;2.23;;
71164;SDS011;58859;55.132;-1.586;2023-12-14T14:15:40;10.15;;;1.90;;
71164;SDS011;58859;55.132;-1.586;2023-12-14T14:18:06;5.77;;;1.37;;
71164;SDS011;58859;55.132;-1.586;2023-12-14T14:20:31;11.13;;;1.83;;
71164;SDS011;58859;55.132;-1.586;2023-12-14T14:22:57;10.27;;;1.88;;
71164;SDS011;58859;55.132;-1.586;2023-12-14T14:25:24;9.77;;;1.75;;
71164;SDS011;58859;55.132;-1.586;2023-12-14T14:27:50;10.18;;;1.90;;
71164;SDS011;58859;55.132;-1.586;2023-12-14T14:30:15;8.43;;;1.97;;
71164;SDS011;58859;55.132;-1.586;2023-12-14T14:32:41;8.95;;;2.22;;